Terminal Aerodrome Forecast
Issued by NWS

Home | Current Version | Previous Version | Text Only | Print | Product List | Glossary Off
Versions: 1 2 3 4 5 6 7 8 9 10 11 12 13

746
FTUS43 KOAX 232320
TAFCDR
TAF
KCDR 232320Z 2400/2424 01012G22KT P6SM SCT070
     FM240200 VRB03KT P6SM SKC
     FM240700 19006KT P6SM SKC
     FM241500 18013G23KT P6SM SCT080=

USA.gov is the U.S. government's official web portal to all federal, state and local government web resources and services.